If you wish to contribute or participate in the discussions about articles you are invited to join SKYbrary as a registered user

 Actions

Bremen

From SKYbrary Wiki

EDDW
Airport
ICAO: EDDW
Summary
Name Bremen
Region Europe
Territory Germany DE.gif
Location Bremen, Germany
Serving
Coordinates 53° 2' 48.00" N, 8° 47' 12.00" E
Runways
Designator Length Width Surface ROPS
5/23 700 m2,296.588 ft
23 m75.459 ft
ASP no/no
9/27 2040 m6,692.913 ft
45 m147.638 ft
ASP yes/yes


METAR
Observation EDDW 191550Z 21008KT 170V240 9999 TS SCT065CB 25/16 Q1006 TEMPO 21015G35KT TSRA
Station Bremen
Date/Time 19 June 2019 15:50:00
Wind direction 210°
Wind speed 08 kts
Lowest cloud amount scattered clouds
Temperature 25°C
Dew point 16°C
Humidity 57%
QNH 1006 hPa
Weather condition thunderstorm


Bremen Airport

ICAO: EDDW IATA: BRE

Description

International airport serving the German city of Bremen.

Climatology

Temperate Marine climate/Oceanic climate (Köppen climate classification Cfb) - Moderately cool summer and comparatively warm winter.

Maps

Terrain

Loading map...

Airport Layout

Loading map...


Accidents & Serious Incidents at or in vicinity of EDDW

None on SKYbrary